Time;durP1;ratioP1;P1;durP2;ratioP2;P2;SDS_P1;SDS_P2;PMS_P1;PMS_P2;Temp;Humidity;BMP_temperature;BMP_pressure;BME280_temperature;BME280_humidity;BME280_pressure;Samples;Min_cycle;Max_cycle;Signal;HPM_P1;HPM_P2
2022/11/06 00:01:20;;;;;;;10.93;4.47;;;12.30;99.90;;;;;;5049279;28;20539;-92
2022/11/06 00:03:47;;;;;;;9.68;4.55;;;12.30;99.90;;;;;;5026060;28;20135;-91
2022/11/06 00:09:04;;;;;;;15.68;4.32;;;12.30;99.90;;;;;;5043406;28;20040;-92
2022/11/06 00:11:31;;;;;;;11.40;4.47;;;12.30;99.90;;;;;;5049110;28;20153;-91
2022/11/06 00:13:59;;;;;;;10.55;3.92;;;12.30;99.90;;;;;;5049792;28;20068;-90
2022/11/06 00:16:26;;;;;;;8.43;3.95;;;12.20;99.90;;;;;;5049636;28;20049;-91
2022/11/06 00:18:53;;;;;;;10.57;3.67;;;12.10;99.90;;;;;;5022214;28;20051;-89
2022/11/06 00:21:22;;;;;;;8.25;3.85;;;12.30;99.90;;;;;;5031785;28;20055;-90
2022/11/06 00:23:49;;;;;;;8.45;3.80;;;12.10;99.90;;;;;;5049494;28;20098;-89
2022/11/06 00:26:19;;;;;;;11.27;4.32;;;12.20;99.90;;;;;;5025509;28;20056;-90
2022/11/06 00:28:47;;;;;;;10.77;4.00;;;12.20;99.90;;;;;;5034140;28;20055;-88
2022/11/06 00:31:16;;;;;;;12.02;4.03;;;12.30;99.90;;;;;;5053400;28;20065;-90
2022/11/06 00:33:43;;;;;;;8.73;3.72;;;12.20;99.90;;;;;;5034890;28;20049;-90
2022/11/06 00:36:12;;;;;;;12.73;3.83;;;12.10;99.90;;;;;;5026916;28;20136;-90
2022/11/06 00:38:39;;;;;;;9.68;3.78;;;12.10;99.90;;;;;;5039543;28;20055;-90
2022/11/06 00:41:08;;;;;;;7.45;3.30;;;12.10;99.90;;;;;;5049165;28;20136;-89
2022/11/06 00:43:37;;;;;;;13.75;4.18;;;12.10;99.90;;;;;;5047165;28;20083;-91
2022/11/06 00:46:06;;;;;;;8.00;3.75;;;12.10;99.90;;;;;;5049221;28;20049;-90
2022/11/06 00:48:34;;;;;;;8.30;3.53;;;12.10;99.90;;;;;;5030075;28;20045;-90
2022/11/06 00:51:02;;;;;;;11.77;3.58;;;12.10;99.90;;;;;;5047326;28;20041;-90
2022/11/06 00:53:29;;;;;;;8.40;3.63;;;12.10;99.90;;;;;;5047969;28;20123;-90
2022/11/06 00:56:04;;;;;;;8.45;3.38;;;12.10;99.90;;;;;;5045324;28;20603;-89
2022/11/06 00:58:31;;;;;;;11.52;3.50;;;12.10;99.90;;;;;;5042551;28;20103;-90
2022/11/06 01:01:07;;;;;;;6.72;3.70;;;12.10;99.90;;;;;;5049118;28;20440;-88
2022/11/06 01:03:34;;;;;;;13.23;3.75;;;12.10;99.90;;;;;;5047221;28;20067;-90
2022/11/06 01:06:09;;;;;;;10.05;3.47;;;12.10;99.90;;;;;;5025180;28;20127;-89
2022/11/06 01:08:36;;;;;;;11.27;3.75;;;12.10;99.90;;;;;;5041840;28;20127;-90
2022/11/06 01:11:08;;;;;;;10.02;3.60;;;12.10;99.90;;;;;;5049538;28;20056;-90
2022/11/06 01:13:35;;;;;;;11.68;3.75;;;12.10;99.90;;;;;;5046816;28;20049;-89
2022/11/06 01:16:06;;;;;;;8.85;3.17;;;12.10;99.90;;;;;;5046269;28;20044;-89
2022/11/06 01:18:33;;;;;;;13.48;2.70;;;12.10;99.90;;;;;;5043139;28;20569;-89
2022/11/06 01:21:04;;;;;;;10.52;3.15;;;12.10;99.90;;;;;;5049521;28;20056;-91
2022/11/06 01:23:31;;;;;;;10.73;3.97;;;12.10;99.90;;;;;;5033841;28;20055;-90
2022/11/06 01:26:03;;;;;;;9.73;3.70;;;12.10;99.90;;;;;;5033406;28;20493;-89
2022/11/06 01:28:30;;;;;;;11.98;3.25;;;12.00;99.90;;;;;;5031839;28;20167;-90
2022/11/06 01:30:57;;;;;;;8.63;3.33;;;12.10;99.90;;;;;;5049031;28;20052;-90
2022/11/06 01:33:25;;;;;;;7.60;2.92;;;12.00;99.90;;;;;;5029705;28;20395;-90
2022/11/06 01:35:56;;;;;;;12.15;4.05;;;12.10;99.90;;;;;;5058630;28;20132;-90
2022/11/06 01:38:23;;;;;;;9.13;3.33;;;12.00;99.90;;;;;;5066109;28;20044;-90
2022/11/06 01:40:53;;;;;;;7.63;3.08;;;12.00;99.90;;;;;;5069362;28;20037;-90
2022/11/06 01:43:21;;;;;;;8.73;2.92;;;12.00;99.90;;;;;;5057289;28;20049;-90
2022/11/06 01:45:50;;;;;;;7.47;3.00;;;11.90;99.90;;;;;;5047467;28;20060;-90
2022/11/06 01:48:19;;;;;;;12.45;2.90;;;11.90;99.90;;;;;;5049087;28;20489;-90
2022/11/06 01:50:50;;;;;;;10.57;3.45;;;12.00;99.90;;;;;;5047787;28;20043;-92
2022/11/06 01:53:20;;;;;;;8.40;2.88;;;11.90;99.90;;;;;;5049378;28;20072;-90
2022/11/06 01:55:52;;;;;;;10.68;3.38;;;11.90;99.90;;;;;;5026695;28;20194;-91
2022/11/06 01:58:21;;;;;;;10.65;3.00;;;11.90;99.90;;;;;;5048301;28;20540;-90
2022/11/06 02:00:48;;;;;;;12.50;2.95;;;11.90;99.90;;;;;;5034884;28;20045;-90
2022/11/06 02:03:19;;;;;;;11.88;3.17;;;11.90;99.90;;;;;;5030115;28;20422;-91
2022/11/06 02:05:48;;;;;;;8.23;3.00;;;11.90;99.90;;;;;;5045496;28;20123;-90
2022/11/06 02:08:18;;;;;;;8.13;2.60;;;12.00;99.90;;;;;;5037097;28;20071;-91
2022/11/06 02:10:45;;;;;;;8.60;2.90;;;11.90;99.90;;;;;;5053182;28;20051;-90
2022/11/06 02:13:27;;;;;;;7.90;3.00;;;11.90;99.90;;;;;;5052071;28;20044;-91
2022/11/06 02:15:59;;;;;;;9.68;3.20;;;11.90;99.90;;;;;;5036219;28;20057;-90
2022/11/06 02:18:51;;;;;;;8.60;2.85;;;11.90;99.90;;;;;;5047823;28;20053;-91
2022/11/06 02:21:37;;;;;;;12.05;2.92;;;11.90;99.90;;;;;;5041987;28;20045;-89
2022/11/06 02:24:27;;;;;;;8.98;3.05;;;11.90;99.90;;;;;;5045843;28;20045;-90
2022/11/06 02:27:05;;;;;;;7.47;2.63;;;11.90;99.90;;;;;;5024654;28;20126;-91
2022/11/06 02:29:34;;;;;;;7.07;3.22;;;11.90;99.90;;;;;;5043447;28;20045;-91
2022/11/06 02:32:10;;;;;;;7.32;2.78;;;11.90;99.90;;;;;;5039884;28;20045;-90
2022/11/06 02:34:38;;;;;;;10.23;3.08;;;11.90;99.90;;;;;;5036426;28;20169;-91
2022/11/06 02:37:09;;;;;;;11.27;3.08;;;11.90;99.90;;;;;;5043364;28;20040;-91
2022/11/06 02:39:36;;;;;;;;;;;11.90;99.90;;;;;;5040462;28;20059;-91
2022/11/06 02:42:07;;;;;;;5.57;2.50;;;11.90;99.90;;;;;;5032269;28;20007;-90
2022/11/06 02:44:36;;;;;;;5.97;2.53;;;11.90;99.90;;;;;;5041832;28;20053;-91
2022/11/06 02:47:06;;;;;;;11.52;2.92;;;11.90;99.90;;;;;;5049500;28;20359;-91
2022/11/06 02:49:38;;;;;;;8.23;2.88;;;12.00;99.90;;;;;;5065713;22;20053;-82
2022/11/06 02:52:10;;;;;;;9.20;3.17;;;12.00;99.90;;;;;;5039526;28;20045;-82
2022/11/06 02:54:41;;;;;;;6.68;2.30;;;11.90;99.90;;;;;;5033288;28;20094;-82
2022/11/06 02:57:14;;;;;;;9.95;3.03;;;11.90;99.90;;;;;;5050767;28;20047;-82
2022/11/06 02:59:44;;;;;;;9.50;2.80;;;11.90;99.90;;;;;;5052040;28;20060;-82
2022/11/06 03:02:16;;;;;;;9.75;2.65;;;11.90;99.90;;;;;;5049761;28;20456;-82
2022/11/06 03:04:47;;;;;;;10.70;2.70;;;12.00;99.90;;;;;;5042578;28;20052;-82
2022/11/06 03:07:18;;;;;;;9.93;2.50;;;11.80;99.90;;;;;;5050860;28;20049;-82
2022/11/06 03:09:45;;;;;;;8.32;2.53;;;12.10;99.90;;;;;;5051080;28;20044;-82
2022/11/06 03:12:19;;;;;;;8.40;2.70;;;11.90;99.90;;;;;;5050520;28;20041;-82
2022/11/06 03:14:52;;;;;;;10.55;2.88;;;11.80;99.90;;;;;;5049797;28;20110;-82
2022/11/06 03:17:23;;;;;;;10.82;2.70;;;11.80;99.90;;;;;;5052071;28;20055;-82
2022/11/06 03:19:56;;;;;;;10.65;2.72;;;11.80;99.90;;;;;;5044341;28;20519;-82
2022/11/06 03:22:27;;;;;;;6.18;2.55;;;11.80;99.90;;;;;;5045859;28;20041;-82
2022/11/06 03:24:59;;;;;;;8.55;2.65;;;11.80;99.90;;;;;;5050361;28;20040;-82
2022/11/06 03:27:33;;;;;;;8.90;2.55;;;11.80;99.90;;;;;;5050694;28;20055;-82
2022/11/06 03:30:02;;;;;;;17.73;3.40;;;11.80;99.90;;;;;;5031459;28;20398;-82
2022/11/06 03:32:30;;;;;;;8.20;2.95;;;11.90;99.90;;;;;;5045083;28;20049;-82
2022/11/06 03:35:03;;;;;;;9.18;2.65;;;11.80;99.90;;;;;;5050211;28;20037;-82
2022/11/06 03:37:34;;;;;;;10.40;2.30;;;11.90;99.90;;;;;;5050591;28;20117;-81
2022/11/06 03:40:08;;;;;;;9.95;2.42;;;11.90;99.90;;;;;;5030333;28;20103;-82
2022/11/06 03:42:36;;;;;;;;;;;11.80;99.90;;;;;;5044546;28;20044;-82
2022/11/06 03:45:07;;;;;;;5.78;2.53;;;11.80;99.90;;;;;;5029247;28;19920;-82
2022/11/06 03:47:37;;;;;;;8.65;2.60;;;11.80;99.90;;;;;;5050474;28;20068;-82
2022/11/06 03:50:07;;;;;;;6.03;2.13;;;11.90;99.90;;;;;;5048665;28;20041;-82
2022/11/06 03:52:37;;;;;;;8.80;2.50;;;11.80;99.90;;;;;;5046920;28;20048;-82
2022/11/06 03:55:15;;;;;;;8.27;2.50;;;11.80;99.90;;;;;;5049687;28;20382;-82
2022/11/06 03:57:46;;;;;;;10.35;2.70;;;11.80;99.90;;;;;;5049008;28;20055;-82
2022/11/06 04:00:15;;;;;;;7.80;2.53;;;11.70;99.90;;;;;;5049852;28;20048;-82
2022/11/06 04:02:48;;;;;;;6.88;2.20;;;11.70;99.90;;;;;;5047915;28;20049;-82
2022/11/06 04:05:17;;;;;;;9.57;3.10;;;11.70;99.90;;;;;;5031095;28;20504;-82
2022/11/06 04:13:56;;;;;;;8.05;2.40;;;11.70;99.90;;;;;;5049383;28;20057;-82
2022/11/06 04:16:09;;;;;;;10.02;2.92;;;11.70;99.90;;;;;;5048543;28;20045;-82
2022/11/06 04:18:36;;;;;;;8.00;2.30;;;11.70;99.90;;;;;;5049989;28;20497;-82
2022/11/06 04:21:24;;;;;;;10.20;2.28;;;11.70;99.90;;;;;;5045569;28;20045;-82
2022/11/06 04:26:58;;;;;;;7.28;2.42;;;11.70;99.90;;;;;;5049795;28;20052;-82
2022/11/06 04:29:37;;;;;;;8.77;2.53;;;11.70;99.90;;;;;;5049742;28;20049;-82
2022/11/06 04:32:08;;;;;;;8.35;2.30;;;11.80;99.90;;;;;;5046781;28;20056;-82
2022/11/06 04:34:42;;;;;;;6.63;2.30;;;11.80;99.90;;;;;;5048183;28;20055;-82
2022/11/06 04:37:14;;;;;;;9.23;2.30;;;11.70;99.90;;;;;;5030108;28;20049;-82
2022/11/06 04:39:41;;;;;;;;;;;11.80;99.90;;;;;;5033445;28;20037;-82
2022/11/06 04:42:12;;;;;;;7.53;2.15;;;11.70;99.90;;;;;;5036078;28;19960;-82
2022/11/06 04:44:43;;;;;;;9.85;2.50;;;11.80;99.90;;;;;;5048806;28;20047;-82
2022/11/06 04:47:14;;;;;;;5.93;2.35;;;11.80;99.90;;;;;;5049397;28;20143;-82
2022/11/06 04:49:42;;;;;;;6.30;2.28;;;11.90;99.90;;;;;;5048760;28;20048;-82
2022/11/06 04:52:12;;;;;;;9.90;2.97;;;11.80;99.90;;;;;;5044971;28;20051;-82
2022/11/06 04:54:39;;;;;;;8.05;2.20;;;11.80;99.90;;;;;;5048115;28;20119;-82
2022/11/06 04:57:06;;;;;;;12.07;2.25;;;11.80;99.90;;;;;;5049742;28;20052;-82
2022/11/06 04:59:35;;;;;;;9.45;2.33;;;11.80;99.90;;;;;;5047944;28;20055;-82
2022/11/06 05:02:05;;;;;;;7.18;2.20;;;11.70;99.90;;;;;;5040868;28;20591;-82
2022/11/06 05:04:32;;;;;;;8.45;2.35;;;11.70;99.90;;;;;;5046679;28;20048;-82
2022/11/06 05:06:59;;;;;;;6.60;1.92;;;11.70;99.90;;;;;;5043099;28;20043;-82
2022/11/06 05:09:26;;;;;;;6.38;2.13;;;11.70;99.90;;;;;;5040707;28;20041;-82
2022/11/06 05:11:53;;;;;;;5.88;1.92;;;11.70;99.90;;;;;;5040554;28;20048;-82
2022/11/06 05:14:20;;;;;;;6.57;2.20;;;11.70;99.90;;;;;;5048321;28;20049;-81
2022/11/06 05:16:47;;;;;;;5.13;1.77;;;11.80;99.90;;;;;;5048489;28;20041;-82
2022/11/06 05:19:15;;;;;;;8.30;2.00;;;11.80;99.90;;;;;;5030398;28;20076;-81
2022/11/06 05:24:29;;;;;;;11.18;2.55;;;11.80;99.90;;;;;;5028600;28;20034;-82
2022/11/06 05:26:58;;;;;;;6.53;1.90;;;11.80;99.90;;;;;;5048152;28;20045;-82
2022/11/06 05:29:25;;;;;;;10.65;2.10;;;11.80;99.90;;;;;;5040320;28;20045;-82
2022/11/06 05:31:51;;;;;;;10.40;2.53;;;11.80;99.90;;;;;;5040603;28;20494;-82
2022/11/06 05:34:20;;;;;;;6.85;2.10;;;11.80;99.90;;;;;;5048662;28;20048;-82
2022/11/06 05:36:47;;;;;;;8.80;2.00;;;11.80;99.90;;;;;;5046737;28;20056;-82
2022/11/06 05:39:14;;;;;;;6.30;1.88;;;11.80;99.90;;;;;;5049089;28;20128;-82
2022/11/06 05:41:40;;;;;;;9.55;1.98;;;11.80;99.90;;;;;;5038802;28;20045;-82
2022/11/06 05:44:07;;;;;;;11.75;2.17;;;11.80;99.90;;;;;;5023251;28;20399;-82
2022/11/06 05:46:34;;;;;;;8.10;1.98;;;11.70;99.90;;;;;;5040708;28;20046;-82
2022/11/06 05:49:01;;;;;;;6.70;2.58;;;11.70;99.90;;;;;;5044943;28;20049;-82
2022/11/06 05:51:29;;;;;;;11.00;2.20;;;11.70;99.90;;;;;;5048371;28;20041;-81
2022/11/06 05:53:56;;;;;;;4.47;1.70;;;11.80;99.90;;;;;;5048304;28;20056;-82
2022/11/06 05:56:23;;;;;;;4.70;1.98;;;11.70;99.90;;;;;;5038424;28;20048;-82
2022/11/06 05:58:50;;;;;;;6.88;1.73;;;11.70;99.90;;;;;;5040035;28;20699;-82
2022/11/06 06:01:17;;;;;;;8.52;1.80;;;11.80;99.90;;;;;;5046238;28;20052;-82
2022/11/06 06:03:44;;;;;;;6.45;1.90;;;11.70;99.90;;;;;;5047429;28;20048;-87
2022/11/06 06:06:11;;;;;;;5.80;1.48;;;11.70;99.90;;;;;;5035480;28;20657;-83
2022/11/06 06:08:39;;;;;;;7.45;1.88;;;11.70;99.90;;;;;;5047603;28;20106;-82
2022/11/06 06:11:07;;;;;;;6.68;2.05;;;11.70;99.90;;;;;;5048338;28;20557;-84
2022/11/06 06:13:36;;;;;;;10.10;2.17;;;11.60;99.90;;;;;;5048418;28;20061;-84
2022/11/06 06:16:04;;;;;;;8.95;1.83;;;11.70;99.90;;;;;;5045667;28;20041;-83
2022/11/06 06:18:31;;;;;;;9.63;2.33;;;11.70;99.90;;;;;;5047380;28;20059;-84
2022/11/06 06:20:58;;;;;;;8.95;1.77;;;11.70;99.90;;;;;;5048690;28;20041;-85
2022/11/06 06:23:25;;;;;;;6.65;1.80;;;11.80;99.90;;;;;;5064135;28;20045;-85
2022/11/06 06:25:53;;;;;;;10.07;2.55;;;11.80;99.90;;;;;;5046580;28;20059;-85
2022/11/06 06:28:20;;;;;;;7.00;1.80;;;11.80;99.90;;;;;;5039956;28;20439;-84
2022/11/06 06:30:47;;;;;;;7.38;1.58;;;11.80;99.90;;;;;;5048189;28;20041;-84
2022/11/06 06:33:14;;;;;;;9.23;2.33;;;11.70;99.90;;;;;;5045418;28;20056;-84
2022/11/06 06:35:41;;;;;;;10.35;1.83;;;11.80;99.90;;;;;;5041746;28;20219;-83
2022/11/06 06:38:08;;;;;;;5.47;1.60;;;11.80;99.90;;;;;;5047335;28;20132;-83
2022/11/06 06:40:37;;;;;;;10.35;1.98;;;11.70;99.90;;;;;;5048680;28;20119;-88
2022/11/06 06:43:06;;;;;;;6.55;1.75;;;11.70;99.90;;;;;;5047010;28;20122;-86
2022/11/06 06:45:33;;;;;;;7.57;1.92;;;11.70;99.90;;;;;;5045514;28;20397;-87
2022/11/06 06:48:02;;;;;;;6.05;1.88;;;11.70;99.90;;;;;;5045261;28;20040;-87
2022/11/06 06:50:29;;;;;;;8.68;1.92;;;11.80;99.90;;;;;;5042916;28;20518;-87
2022/11/06 06:52:56;;;;;;;8.88;2.30;;;11.80;99.90;;;;;;5048095;28;20056;-86
2022/11/06 06:55:23;;;;;;;7.38;1.92;;;11.80;99.90;;;;;;5050851;28;20049;-86
2022/11/06 06:57:56;;;;;;;6.10;2.20;;;11.80;99.90;;;;;;5050505;28;20087;-86
2022/11/06 07:00:24;;;;;;;11.35;2.10;;;11.80;99.90;;;;;;5039621;28;20049;-86
2022/11/06 07:02:52;;;;;;;7.32;1.80;;;11.80;99.90;;;;;;5033102;28;20136;-86
2022/11/06 07:05:19;;;;;;;7.85;2.08;;;11.80;99.90;;;;;;5050412;28;20500;-87
2022/11/06 07:07:56;;;;;;;7.97;1.90;;;11.80;99.90;;;;;;5061069;28;20044;-87
2022/11/06 07:10:23;;;;;;;5.78;1.80;;;11.80;99.90;;;;;;5033234;28;20142;-86
2022/11/06 07:12:50;;;;;;;6.95;1.88;;;11.80;99.90;;;;;;5051049;28;20090;-87
2022/11/06 07:15:17;;;;;;;10.27;2.45;;;11.80;99.90;;;;;;5043326;28;20049;-84
2022/11/06 07:17:46;;;;;;;11.48;2.10;;;11.80;99.90;;;;;;5041544;28;20045;-83
2022/11/06 07:20:13;;;;;;;7.22;2.15;;;11.80;99.90;;;;;;5049198;28;20069;-85
2022/11/06 07:22:40;;;;;;;7.07;2.25;;;11.80;99.90;;;;;;5051029;28;20428;-84
2022/11/06 07:25:07;;;;;;;11.35;2.20;;;11.80;99.90;;;;;;5047216;28;20045;-84
2022/11/06 07:27:34;;;;;;;6.47;2.20;;;11.90;99.90;;;;;;5045560;28;20125;-83
2022/11/06 07:30:01;;;;;;;10.35;2.25;;;11.90;99.90;;;;;;5046810;28;20045;-83
2022/11/06 07:32:29;;;;;;;6.55;2.00;;;11.90;99.90;;;;;;5024959;28;20958;-83
2022/11/06 07:34:57;;;;;;;7.40;2.17;;;11.90;99.90;;;;;;5042256;28;20072;-83
2022/11/06 07:37:24;;;;;;;5.32;1.73;;;11.90;99.90;;;;;;5050940;28;20045;-84
2022/11/06 07:39:51;;;;;;;9.85;2.15;;;11.90;99.90;;;;;;5051386;28;20071;-83
2022/11/06 07:42:18;;;;;;;7.53;1.73;;;11.90;99.90;;;;;;5045062;28;20127;-83
2022/11/06 07:44:57;;;;;;;6.72;2.35;;;11.90;99.90;;;;;;5048554;28;20045;-83
2022/11/06 07:47:24;;;;;;;7.90;1.92;;;12.00;99.90;;;;;;5042091;28;20045;-82
2022/11/06 07:49:51;;;;;;;8.40;1.90;;;12.00;99.90;;;;;;5035873;28;20049;-83
2022/11/06 07:52:19;;;;;;;6.93;1.67;;;12.10;99.90;;;;;;5046670;28;20278;-82
2022/11/06 07:54:46;;;;;;;10.05;1.90;;;12.00;99.90;;;;;;5039971;28;20047;-84
2022/11/06 07:57:13;;;;;;;12.65;2.35;;;12.10;99.90;;;;;;5042293;28;20059;-84
2022/11/06 07:59:41;;;;;;;11.00;1.95;;;12.00;99.90;;;;;;5027343;28;20106;-84
2022/11/06 08:02:10;;;;;;;9.77;1.80;;;12.00;99.90;;;;;;5048494;28;20052;-83
2022/11/06 08:04:37;;;;;;;7.63;2.03;;;12.10;99.90;;;;;;5042552;28;20758;-83
2022/11/06 08:07:04;;;;;;;8.98;2.20;;;12.10;99.90;;;;;;5046454;28;20545;-84
2022/11/06 08:09:32;;;;;;;9.32;1.70;;;12.10;99.90;;;;;;5049623;28;20045;-84
2022/11/06 08:11:59;;;;;;;10.50;2.33;;;12.10;99.90;;;;;;5048839;28;20112;-83
2022/11/06 08:14:29;;;;;;;9.50;2.38;;;12.10;99.90;;;;;;5035983;28;20045;-82
2022/11/06 08:16:57;;;;;;;11.95;2.80;;;12.10;99.90;;;;;;5028808;28;20574;-85
2022/11/06 08:19:26;;;;;;;5.75;1.95;;;12.10;99.90;;;;;;5049043;28;20044;-84
2022/11/06 08:21:53;;;;;;;7.18;2.08;;;12.20;99.90;;;;;;5041271;28;20051;-83
2022/11/06 08:24:20;;;;;;;7.22;2.33;;;12.20;99.90;;;;;;5038641;28;20048;-82
2022/11/06 08:26:48;;;;;;;14.30;2.28;;;12.30;99.90;;;;;;5044795;28;20047;-82
2022/11/06 08:29:18;;;;;;;9.85;2.00;;;12.20;99.90;;;;;;5046426;28;20045;-84
2022/11/06 08:31:45;;;;;;;9.45;1.80;;;12.20;99.90;;;;;;5048440;28;20531;-83
2022/11/06 08:34:12;;;;;;;9.18;2.20;;;12.30;99.90;;;;;;5036309;28;20045;-82
2022/11/06 08:36:45;;;;;;;9.75;2.53;;;12.40;99.90;;;;;;5046443;28;20051;-82
2022/11/06 08:39:12;;;;;;;10.27;2.20;;;12.30;99.90;;;;;;5048841;28;20555;-82
2022/11/06 08:41:39;;;;;;;7.72;2.22;;;12.40;99.90;;;;;;5040723;28;20409;-83
2022/11/06 08:44:07;;;;;;;5.97;2.15;;;12.40;99.90;;;;;;5050019;28;20136;-82
2022/11/06 08:46:34;;;;;;;8.45;2.08;;;12.50;99.90;;;;;;5046821;28;20063;-82
2022/11/06 08:49:01;;;;;;;7.63;1.90;;;12.50;99.90;;;;;;5065354;22;20083;-89
2022/11/06 08:51:31;;;;;;;7.50;2.08;;;12.40;99.90;;;;;;5043356;28;20508;-89
2022/11/06 08:53:58;;;;;;;8.02;2.55;;;12.50;99.90;;;;;;5041763;28;20420;-89
2022/11/06 08:56:30;;;;;;;8.07;2.40;;;12.50;99.90;;;;;;5049953;28;20044;-89
2022/11/06 08:58:57;;;;;;;6.68;2.08;;;12.50;99.90;;;;;;5049016;28;20090;-89
2022/11/06 09:01:25;;;;;;;7.78;2.40;;;12.60;99.90;;;;;;5046550;28;20614;-88
2022/11/06 09:03:53;;;;;;;7.35;1.95;;;12.60;99.90;;;;;;5048948;28;20116;-89
2022/11/06 09:06:20;;;;;;;10.70;2.20;;;12.60;99.90;;;;;;5043938;28;20130;-90
2022/11/06 09:08:47;;;;;;;9.63;2.10;;;12.70;99.90;;;;;;5039925;28;20041;-90
2022/11/06 09:11:14;;;;;;;11.18;2.10;;;12.70;99.90;;;;;;5042201;28;20128;-90
2022/11/06 09:13:47;;;;;;;5.32;1.95;;;12.70;99.90;;;;;;5050630;28;20041;-90
2022/11/06 09:16:14;;;;;;;7.60;1.77;;;12.70;99.90;;;;;;5050665;28;20544;-91
2022/11/06 09:18:42;;;;;;;7.93;2.35;;;12.80;99.90;;;;;;5044024;28;20122;-91
2022/11/06 09:21:12;;;;;;;8.45;1.98;;;12.80;99.90;;;;;;5048254;28;20652;-91
2022/11/06 09:23:43;;;;;;;8.38;2.22;;;12.80;99.90;;;;;;5037183;28;20077;-90
2022/11/06 09:26:15;;;;;;;7.28;1.90;;;12.80;99.90;;;;;;5032578;28;20045;-90
2022/11/06 09:28:42;;;;;;;11.07;2.10;;;12.80;99.90;;;;;;5039475;28;20494;-90
2022/11/06 09:31:09;;;;;;;7.50;2.08;;;12.90;99.90;;;;;;5052741;28;20559;-90
2022/11/06 09:33:39;;;;;;;10.20;2.20;;;12.90;99.90;;;;;;5051954;28;20065;-90
2022/11/06 09:36:11;;;;;;;10.73;2.30;;;12.90;99.90;;;;;;5052814;28;20056;-90
2022/11/06 09:38:45;;;;;;;7.55;2.10;;;12.90;99.90;;;;;;5050462;28;20533;-90
2022/11/06 09:41:19;;;;;;;9.07;2.22;;;12.90;99.90;;;;;;5032870;28;20568;-91
2022/11/06 09:43:56;;;;;;;8.80;2.13;;;13.00;99.90;;;;;;5050209;28;20513;-90
2022/11/06 09:46:30;;;;;;;9.07;2.20;;;13.00;99.90;;;;;;5030358;28;20049;-90
2022/11/06 09:49:18;;;;;;;6.35;2.25;;;13.00;99.90;;;;;;5039455;28;20236;-89
2022/11/06 09:51:54;;;;;;;7.28;2.08;;;13.00;99.90;;;;;;5050610;28;20116;-90
2022/11/06 09:54:26;;;;;;;7.32;1.95;;;13.00;99.90;;;;;;5051848;28;20048;-89
2022/11/06 09:57:29;;;;;;;;;;;;;;;;;;;;;
2022/11/06 10:00:06;;;;;;;10.07;2.08;;;13.10;99.90;;;;;;5047517;28;20041;-90
2022/11/06 10:02:44;;;;;;;10.63;2.42;;;13.10;99.90;;;;;;5050637;28;20858;-90
2022/11/06 10:05:16;;;;;;;10.43;2.38;;;13.10;99.90;;;;;;5049001;28;20112;-90
2022/11/06 10:07:44;;;;;;;7.60;2.22;;;13.10;99.90;;;;;;5049930;28;20057;-89
2022/11/06 10:10:15;;;;;;;6.50;2.15;;;13.20;99.90;;;;;;5049056;28;20041;-90
2022/11/06 10:12:59;;;;;;;10.38;1.88;;;13.10;99.90;;;;;;5050345;28;20044;-90
2022/11/06 10:15:36;;;;;;;7.50;2.05;;;13.10;99.90;;;;;;5034726;28;20049;-90
2022/11/06 10:18:11;;;;;;;5.55;1.70;;;13.10;99.90;;;;;;5023923;28;20048;-90
2022/11/06 10:20:47;;;;;;;7.28;1.73;;;13.20;99.90;;;;;;5043780;28;20080;-89
2022/11/06 10:23:20;;;;;;;7.28;2.20;;;13.20;99.90;;;;;;5047344;28;20310;-89
2022/11/06 10:26:00;;;;;;;7.68;2.10;;;13.20;99.90;;;;;;5029953;28;20060;-90
2022/11/06 10:28:48;;;;;;;8.90;1.98;;;13.20;99.90;;;;;;5011960;28;20148;-89
2022/11/06 10:31:20;;;;;;;8.05;2.30;;;13.30;99.90;;;;;;5022211;28;20049;-87
2022/11/06 10:33:55;;;;;;;8.02;2.35;;;13.30;99.90;;;;;;5048131;28;20069;-88
2022/11/06 10:36:24;;;;;;;6.45;2.10;;;13.30;99.90;;;;;;5046308;28;20055;-88
2022/11/06 10:38:53;;;;;;;7.50;2.30;;;13.30;99.90;;;;;;5049374;28;20125;-89
2022/11/06 10:41:23;;;;;;;8.02;2.13;;;13.30;99.90;;;;;;5028235;28;20403;-90
2022/11/06 10:43:55;;;;;;;6.20;2.20;;;13.30;99.90;;;;;;5051899;28;20047;-89
2022/11/06 10:46:30;;;;;;;6.97;2.00;;;13.30;99.90;;;;;;5025201;28;20049;-89
2022/11/06 10:48:59;;;;;;;9.88;2.15;;;13.30;99.90;;;;;;5052026;28;20709;-88
2022/11/06 10:51:35;;;;;;;10.40;2.40;;;13.30;99.90;;;;;;5028606;28;20394;-90
2022/11/06 10:54:13;;;;;;;7.95;2.85;;;13.50;99.90;;;;;;5036481;28;20156;-89
2022/11/06 10:56:50;;;;;;;7.80;2.40;;;13.20;99.90;;;;;;5030065;28;20054;-89
2022/11/06 10:59:20;;;;;;;8.75;2.22;;;13.30;99.90;;;;;;5032156;28;20588;-90
2022/11/06 11:01:50;;;;;;;5.65;2.05;;;13.20;99.90;;;;;;5044998;28;20620;-89
2022/11/06 11:04:17;;;;;;;7.25;2.05;;;13.30;99.90;;;;;;5049973;28;20056;-89
2022/11/06 11:06:46;;;;;;;10.93;2.78;;;13.30;99.90;;;;;;5048862;28;20037;-88
2022/11/06 11:09:29;;;;;;;6.35;1.98;;;13.30;99.90;;;;;;5048843;28;20040;-88
2022/11/06 11:11:57;;;;;;;8.02;2.25;;;13.30;99.90;;;;;;5041775;28;20048;-88
2022/11/06 11:14:25;;;;;;;7.97;2.50;;;13.40;99.90;;;;;;5050115;28;20040;-87
2022/11/06 11:16:52;;;;;;;10.00;2.00;;;13.40;99.90;;;;;;5029416;28;20645;-89
2022/11/06 11:19:27;;;;;;;6.60;1.90;;;13.40;99.90;;;;;;5051073;28;20048;-89
2022/11/06 11:21:56;;;;;;;6.10;1.70;;;13.40;99.90;;;;;;5049388;28;20041;-88
2022/11/06 11:24:27;;;;;;;12.00;2.83;;;13.40;99.90;;;;;;5024976;28;20059;-87
2022/11/06 11:26:58;;;;;;;11.00;2.00;;;13.40;99.90;;;;;;5044181;28;20075;-91
2022/11/06 11:29:27;;;;;;;7.53;2.10;;;13.50;99.90;;;;;;5052315;28;20053;-93
2022/11/06 11:31:57;;;;;;;8.75;2.47;;;13.50;99.90;;;;;;5035721;28;20147;-92
2022/11/06 11:34:27;;;;;;;8.55;2.30;;;13.40;99.90;;;;;;5032854;28;20132;-93
2022/11/06 11:36:59;;;;;;;6.10;2.20;;;13.40;99.90;;;;;;5050917;28;20094;-91
2022/11/06 11:39:31;;;;;;;7.75;2.58;;;13.40;99.90;;;;;;5038418;28;20049;-91
2022/11/06 11:42:23;;;;;;;9.55;2.35;;;13.50;99.90;;;;;;5044518;28;20063;-92
2022/11/06 11:45:28;;;;;;;8.05;2.42;;;13.50;99.90;;;;;;5049392;28;20163;-93
2022/11/06 11:48:12;;;;;;;10.05;2.75;;;13.50;99.90;;;;;;5045838;28;20522;-93
2022/11/06 12:11:02;;;;;;;7.38;2.20;;;13.60;99.90;;;;;;4960570;28;20051;-94
2022/11/06 12:13:28;;;;;;;;;;;13.70;99.90;;;;;;4961811;28;20057;-85
2022/11/06 12:15:58;;;;;;;7.18;2.00;;;13.70;99.90;;;;;;5006864;28;19924;-91
2022/11/06 12:18:28;;;;;;;5.57;2.03;;;13.70;99.90;;;;;;5005644;28;20045;-88
2022/11/06 12:21:00;;;;;;;6.75;2.30;;;13.70;99.90;;;;;;5007470;28;20084;-90
2022/11/06 12:23:32;;;;;;;9.00;1.83;;;13.70;99.90;;;;;;5009370;28;20037;-85
2022/11/06 12:26:05;;;;;;;6.60;2.40;;;13.70;99.90;;;;;;4999100;28;20047;-89
2022/11/06 12:28:36;;;;;;;9.77;2.33;;;13.70;99.90;;;;;;5002763;28;20108;-89
2022/11/06 12:31:06;;;;;;;5.47;1.80;;;13.70;99.90;;;;;;5009893;28;20050;-90
2022/11/06 12:33:33;;;;;;;9.40;2.60;;;13.70;99.90;;;;;;5016181;28;20049;-87
2022/11/06 12:36:02;;;;;;;9.27;2.10;;;13.70;99.90;;;;;;5020533;28;20053;-88
2022/11/06 12:38:33;;;;;;;7.05;2.33;;;13.80;99.90;;;;;;4998993;28;20058;-88
2022/11/06 12:41:03;;;;;;;7.05;2.33;;;13.80;99.90;;;;;;5012772;28;20041;-88
2022/11/06 12:43:34;;;;;;;7.57;2.10;;;13.80;99.90;;;;;;5012609;28;20045;-88
2022/11/06 12:46:10;;;;;;;6.95;2.13;;;13.80;99.90;;;;;;5018074;28;20288;-90
2022/11/06 12:48:58;;;;;;;7.45;1.67;;;13.70;99.90;;;;;;5027388;28;20118;-88
2022/11/06 12:51:36;;;;;;;8.48;2.25;;;13.70;99.90;;;;;;5007247;28;20049;-90
2022/11/06 12:54:15;;;;;;;7.38;2.40;;;13.70;99.90;;;;;;5008453;28;20038;-89
2022/11/06 12:56:52;;;;;;;7.03;1.98;;;13.80;99.90;;;;;;5005220;28;20108;-88
2022/11/06 12:59:27;;;;;;;6.72;2.28;;;13.70;99.90;;;;;;5010343;28;20532;-89
2022/11/06 13:02:00;;;;;;;5.63;2.15;;;13.70;99.90;;;;;;5008715;28;20054;-90
2022/11/06 13:04:33;;;;;;;8.93;2.60;;;13.70;99.90;;;;;;5008103;28;20055;-89
2022/11/06 13:07:28;;;;;;;7.55;2.42;;;13.70;99.90;;;;;;5013406;28;20497;-90
2022/11/06 13:10:09;;;;;;;5.47;2.03;;;13.70;99.90;;;;;;5008827;28;20058;-88
2022/11/06 13:12:44;;;;;;;10.18;2.17;;;13.80;99.90;;;;;;5008117;28;20093;-90
2022/11/06 13:15:20;;;;;;;10.43;2.58;;;13.70;99.90;;;;;;5008406;28;20056;-90
2022/11/06 13:17:52;;;;;;;5.38;2.15;;;13.80;99.90;;;;;;5004781;28;20074;-89
2022/11/06 13:20:25;;;;;;;6.25;2.60;;;13.80;99.90;;;;;;5012262;28;20049;-88
2022/11/06 13:22:58;;;;;;;9.93;2.28;;;13.90;99.90;;;;;;5011665;28;20499;-89
2022/11/06 13:25:31;;;;;;;7.43;2.40;;;13.90;99.90;;;;;;5008809;28;20064;-89
2022/11/06 13:28:03;;;;;;;7.18;2.28;;;13.90;99.90;;;;;;5008472;28;20503;-90
2022/11/06 13:30:30;;;;;;;7.50;2.20;;;13.90;99.90;;;;;;5005609;28;20073;-88
2022/11/06 13:33:05;;;;;;;8.48;2.40;;;13.80;99.90;;;;;;5008552;28;20491;-89
2022/11/06 13:35:34;;;;;;;4.75;1.73;;;13.80;99.90;;;;;;5002432;28;20050;-90
2022/11/06 13:38:05;;;;;;;5.68;2.22;;;13.80;99.90;;;;;;5003664;28;20167;-91